Korrewegwijk, Netherlands
Current Conditions -  °F | °C
As of 8:55 PM on Saturday 25 Oct 2014 (Local Time) from EHGG Reporting Station
Broken Clouds Broken Clouds  
Wind Chill: 50°   Ceiling: 4700
Heat Index: 50°   Visibility: 6mi
Dew Point: 48°   Wind: 5mph
Humidity: 94%   Direction: 210°SSW
Pressure: 30.09"   Gusts: NA
Location:  53.23°N, 6.57°E
Report Text: EHGG 251855Z AUTO 21004KT 9999 FEW037 BKN047 10/09 Q1019 NOSIG
Loading
Personal Weather Stations






























Interactive Weather Map
Tropical Storm Tracking
New forecast layout! Learn more

10-Day Weather Forecast

Advertisements
Track Severe Weather on mobile